Time;durP1;ratioP1;P1;durP2;ratioP2;P2;SDS_P1;SDS_P2;PMS_P1;PMS_P2;Temp;Humidity;BMP_temperature;BMP_pressure;BME280_temperature;BME280_humidity;BME280_pressure;Samples;Min_cycle;Max_cycle;Signal;HPM_P1;HPM_P2
2022/08/06 00:02:20;;;;;;;;;;;;;;;29.44;46.55;100751.50;5097057;28;19927;-77
2022/08/06 00:04:51;;;;;;;;;;;;;;;29.44;46.58;100759.69;5097381;28;19927;-77
2022/08/06 00:07:19;;;;;;;;;;;;;;;29.44;46.35;100760.53;5096264;28;19920;-77
2022/08/06 00:09:52;;;;;;;;;;;;;;;29.44;46.32;100751.50;5097951;28;19920;-77
2022/08/06 00:12:27;;;;;;;;;;;;;;;29.45;46.28;100747.72;5097670;28;19927;-77
2022/08/06 00:15:00;;;;;;;;;;;;;;;29.44;46.42;100746.88;5096155;28;20307;-77
2022/08/06 00:17:38;;;;;;;;;;;;;;;29.44;46.67;100746.88;5097495;28;20367;-77
2022/08/06 00:20:06;;;;;;;;;;;;;;;29.44;46.24;100752.34;5097706;28;19927;-77
2022/08/06 00:22:36;;;;;;;;;;;;;;;29.44;46.50;100756.94;5097941;28;19927;-77
2022/08/06 00:25:04;;;;;;;;;;;;;;;29.45;46.49;100754.03;5097330;28;19924;-78
2022/08/06 00:27:31;;;;;;;;;;;;;;;29.44;46.54;100755.06;5097007;28;20268;-78
2022/08/06 00:30:05;;;;;;;;;;;;;;;29.44;46.35;100746.88;5097549;28;19920;-78
2022/08/06 00:32:48;;;;;;;;;;;;;;;29.44;46.29;100759.69;5097078;28;19919;-78
2022/08/06 00:35:20;;;;;;;;;;;;;;;29.44;46.66;100765.97;5096309;28;19920;-78
2022/08/06 00:37:47;;;;;;;;;;;;;;;29.44;46.42;100770.59;5097629;28;20388;-78
2022/08/06 00:40:29;;;;;;;;;;;;;;;29.45;46.30;100772.28;5095414;28;19920;-78
2022/08/06 00:42:58;;;;;;;;;;;;;;;29.44;46.27;100768.69;5096999;28;19920;-78
2022/08/06 00:45:29;;;;;;;;;;;;;;;29.45;46.44;100769.53;5096213;28;19920;-78
2022/08/06 00:47:58;;;;;;;;;;;;;;;29.45;46.27;100766.81;5096509;28;19920;-78
2022/08/06 00:50:33;;;;;;;;;;;;;;;29.45;46.27;100761.34;5097297;28;19920;-78
2022/08/06 00:53:02;;;;;;;;;;;;;;;29.44;46.28;100752.34;5095999;28;19920;-78
2022/08/06 00:55:30;;;;;;;;;;;;;;;29.45;46.27;100761.34;5112368;27;19920;-78
2022/08/06 00:58:07;;;;;;;;;;;;;;;29.44;46.46;100755.06;5096622;28;19920;-78
2022/08/06 01:00:39;;;;;;;;;;;;;;;29.45;46.39;100753.19;5096958;28;19927;-78
2022/08/06 01:03:17;;;;;;;;;;;;;;;29.44;46.28;100749.59;5095882;28;20287;-78
2022/08/06 01:06:05;;;;;;;;;;;;;;;29.45;46.31;100750.44;5094887;28;19923;-78
2022/08/06 01:08:52;;;;;;;;;;;;;;;29.45;46.26;100758.63;5096821;28;19927;-78
2022/08/06 01:11:19;;;;;;;;;;;;;;;29.45;46.39;100759.50;5096172;28;19920;-76
2022/08/06 01:13:48;;;;;;;;;;;;;;;29.46;46.28;100757.59;5096081;28;19927;-76
2022/08/06 01:16:47;;;;;;;;;;;;;;;29.45;46.63;100751.31;5096049;28;19927;-76
2022/08/06 01:19:20;;;;;;;;;;;;;;;29.44;46.40;100749.59;5096625;28;19932;-76
2022/08/06 01:22:07;;;;;;;;;;;;;;;29.45;46.33;100754.03;5096568;28;19919;-76
2022/08/06 01:25:23;;;;;;;;;;;;;;;29.44;46.41;100744.16;5096768;28;19946;-76
2022/08/06 01:28:01;;;;;;;;;;;;;;;29.44;46.29;100755.06;5096476;28;20356;-76
2022/08/06 01:30:35;;;;;;;;;;;;;;;29.46;46.31;100749.44;5095959;28;19927;-76
2022/08/06 01:33:12;;;;;;;;;;;;;;;29.44;46.35;100749.59;5096612;28;19927;-76
2022/08/06 01:35:47;;;;;;;;;;;;;;;29.45;46.40;100750.44;5096219;28;19927;-76
2022/08/06 01:38:24;;;;;;;;;;;;;;;29.45;46.30;100739.53;5095964;28;19928;-76
2022/08/06 01:40:53;;;;;;;;;;;;;;;29.45;46.50;100734.09;5096473;28;19927;-76
2022/08/06 01:43:22;;;;;;;;;;;;;;;29.45;46.65;100740.41;5095841;28;19927;-76
2022/08/06 01:46:11;;;;;;;;;;;;;;;29.45;46.30;100745.00;5095551;28;19924;-76
2022/08/06 01:48:43;;;;;;;;;;;;;;;29.44;46.31;100744.16;5095755;28;20365;-76
2022/08/06 01:51:11;;;;;;;;;;;;;;;29.45;46.29;100740.41;5094258;28;20275;-76
2022/08/06 01:53:59;;;;;;;;;;;;;;;29.44;46.47;100744.16;5095910;28;19920;-76
2022/08/06 01:56:39;;;;;;;;;;;;;;;29.45;46.31;100751.31;5095665;28;20291;-76
2022/08/06 01:59:32;;;;;;;;;;;;;;;29.45;46.38;100743.13;5094934;28;20299;-76
2022/08/06 02:02:01;;;;;;;;;;;;;;;29.44;46.53;100749.59;5095760;28;19927;-76
2022/08/06 02:04:34;;;;;;;;;;;;;;;29.45;46.79;100754.03;5096056;28;20344;-76
2022/08/06 02:07:07;;;;;;;;;;;;;;;29.45;46.39;100756.78;5095586;28;19927;-76
2022/08/06 02:09:55;;;;;;;;;;;;;;;29.45;46.33;100761.34;5095874;28;19931;-76
2022/08/06 02:12:24;;;;;;;;;;;;;;;29.46;46.46;100752.16;5095367;28;20269;-76
2022/08/06 02:14:54;;;;;;;;;;;;;;;29.46;46.53;100763.06;5094835;28;19927;-76
2022/08/06 02:17:24;;;;;;;;;;;;;;;29.47;46.51;100765.59;5095404;28;20360;-76
2022/08/06 02:20:14;;;;;;;;;;;;;;;29.44;46.65;100760.53;5095083;28;19919;-76
2022/08/06 02:23:03;;;;;;;;;;;;;;;29.45;46.44;100762.22;5094340;28;19920;-76
2022/08/06 02:25:31;;;;;;;;;;;;;;;29.44;46.48;100760.53;5094762;28;19927;-76
2022/08/06 02:28:03;;;;;;;;;;;;;;;29.45;46.55;100758.63;5093315;28;19920;-76
2022/08/06 02:30:34;;;;;;;;;;;;;;;29.45;46.72;100756.78;5095527;28;19927;-76
2022/08/06 02:33:09;;;;;;;;;;;;;;;29.46;46.39;100760.34;5094926;28;19920;-78
2022/08/06 02:35:39;;;;;;;;;;;;;;;29.45;46.40;100756.78;5094547;28;19920;-78
2022/08/06 02:38:17;;;;;;;;;;;;;;;29.45;46.79;100756.78;5094485;28;19927;-78
2022/08/06 02:40:56;;;;;;;;;;;;;;;29.45;46.48;100751.31;5095131;28;19943;-78
2022/08/06 02:43:37;;;;;;;;;;;;;;;29.45;46.84;100755.91;5094622;28;19927;-78
2022/08/06 02:46:07;;;;;;;;;;;;;;;29.44;46.62;100755.06;5095061;28;19920;-78
2022/08/06 02:48:49;;;;;;;;;;;;;;;29.45;46.42;100756.78;5094818;28;19927;-78
2022/08/06 02:51:25;;;;;;;;;;;;;;;29.46;46.69;100755.72;5094948;28;19920;-78
2022/08/06 02:54:15;;;;;;;;;;;;;;;29.45;46.67;100754.03;5094922;28;19934;-78
2022/08/06 02:56:44;;;;;;;;;;;;;;;29.45;46.70;100751.31;5094615;28;19920;-78
2022/08/06 02:59:15;;;;;;;;;;;;;;;29.45;46.55;100747.72;5095003;28;19927;-78
2022/08/06 03:01:47;;;;;;;;;;;;;;;29.46;46.82;100753.00;5094196;28;19919;-78
2022/08/06 03:04:18;;;;;;;;;;;;;;;29.45;46.64;100745.88;5094782;28;19920;-78
2022/08/06 03:06:53;;;;;;;;;;;;;;;29.45;46.80;100740.41;5094458;28;19927;-78
2022/08/06 03:09:22;;;;;;;;;;;;;;;29.46;46.45;100743.97;5093085;28;19920;-78
2022/08/06 03:11:52;;;;;;;;;;;;;;;29.45;46.75;100745.00;5094172;28;19990;-78
2022/08/06 03:14:21;;;;;;;;;;;;;;;29.45;46.53;100745.88;5094030;28;19927;-78
2022/08/06 03:17:11;;;;;;;;;;;;;;;29.45;46.51;100737.69;5093883;28;20291;-78
2022/08/06 03:19:39;;;;;;;;;;;;;;;29.44;46.89;100738.69;5094936;28;19920;-78
2022/08/06 03:22:25;;;;;;;;;;;;;;;29.46;46.87;100730.34;5094571;28;19920;-78
2022/08/06 03:25:06;;;;;;;;;;;;;;;29.45;46.44;100734.09;5094401;28;19920;-78
2022/08/06 03:27:36;;;;;;;;;;;;;;;29.45;46.71;100734.09;5093808;28;19920;-78
2022/08/06 03:30:19;;;;;;;;;;;;;;;29.46;46.47;100731.19;5092899;28;19920;-78
2022/08/06 03:33:00;;;;;;;;;;;;;;;29.46;46.39;100727.59;5092899;28;19920;-78
2022/08/06 03:35:48;;;;;;;;;;;;;;;29.45;46.84;100729.50;5094731;28;19920;-78
2022/08/06 03:38:18;;;;;;;;;;;;;;;29.45;46.79;100729.50;5093753;28;20283;-78
2022/08/06 03:40:46;;;;;;;;;;;;;;;29.45;46.62;100723.16;5094138;28;19930;-78
2022/08/06 03:43:14;;;;;;;;;;;;;;;29.45;46.41;100732.22;5094352;28;19920;-78
2022/08/06 03:45:58;;;;;;;;;;;;;;;29.45;46.81;100729.50;5094091;28;19927;-78
2022/08/06 03:48:28;;;;;;;;;;;;;;;29.45;46.55;100723.16;5094327;28;20050;-78
2022/08/06 03:51:05;;;;;;;;;;;;;;;29.45;46.55;100723.16;5094312;28;19931;-78
2022/08/06 03:53:36;;;;;;;;;;;;;;;29.45;46.31;100723.16;5094312;28;19931;-78
2022/08/06 03:56:10;;;;;;;;;;;;;;;29.45;46.56;100726.78;5093768;28;19927;-78
2022/08/06 03:58:43;;;;;;;;;;;;;;;29.45;46.74;100718.59;5093824;28;19920;-78
2022/08/06 04:01:11;;;;;;;;;;;;;;;29.45;46.31;100715.88;5093608;28;19920;-78
2022/08/06 04:03:46;;;;;;;;;;;;;;;29.45;46.32;100720.44;5094199;28;19931;-78
2022/08/06 04:06:17;;;;;;;;;;;;;;;29.45;46.39;100713.13;5093515;28;19920;-78
2022/08/06 04:08:47;;;;;;;;;;;;;;;29.45;46.58;100715.88;5093805;28;19924;-78
2022/08/06 04:11:15;;;;;;;;;;;;;;;29.45;46.38;100717.72;5092219;28;19920;-78
2022/08/06 04:14:03;;;;;;;;;;;;;;;29.45;46.48;100718.59;5093911;28;19927;-78
2022/08/06 04:16:35;;;;;;;;;;;;;;;29.46;46.31;100723.00;5094303;28;19927;-78
2022/08/06 04:19:05;;;;;;;;;;;;;;;29.44;46.49;100719.59;5094006;28;19920;-78
2022/08/06 04:21:35;;;;;;;;;;;;;;;29.45;46.32;100726.78;5092287;28;19943;-78
2022/08/06 04:24:22;;;;;;;;;;;;;;;29.44;46.29;100714.16;5093599;28;20300;-78
2022/08/06 04:27:00;;;;;;;;;;;;;;;29.44;46.35;100722.34;5092220;28;19927;-78
2022/08/06 04:29:36;;;;;;;;;;;;;;;29.45;46.49;100731.34;5096912;28;19920;-78
2022/08/06 04:32:24;;;;;;;;;;;;;;;29.44;46.45;100738.69;5097583;28;19927;-78
2022/08/06 04:34:59;;;;;;;;;;;;;;;29.45;46.41;100742.25;5080355;28;19927;-78
2022/08/06 04:37:46;;;;;;;;;;;;;;;29.45;46.30;100751.31;5097518;28;19927;-78
2022/08/06 04:40:19;;;;;;;;;;;;;;;29.46;46.59;100754.88;5096783;28;20280;-78
2022/08/06 04:43:06;;;;;;;;;;;;;;;29.44;46.70;100760.53;5095469;28;19955;-78
2022/08/06 04:45:34;;;;;;;;;;;;;;;29.45;46.30;100767.69;5097594;28;19920;-78
2022/08/06 04:48:22;;;;;;;;;;;;;;;29.47;46.39;100771.03;5097248;28;19920;-78
2022/08/06 04:50:51;;;;;;;;;;;;;;;29.45;46.36;100775.88;5095301;28;19920;-78
2022/08/06 04:53:21;;;;;;;;;;;;;;;29.45;46.50;100761.34;5096356;28;20402;-78
2022/08/06 04:56:08;;;;;;;;;;;;;;;29.44;46.76;100774.16;5097068;28;20355;-78
2022/08/06 04:58:43;;;;;;;;;;;;;;;29.45;46.42;100767.69;5096240;28;19927;-78
2022/08/06 05:01:11;;;;;;;;;;;;;;;29.45;46.42;100770.41;5096395;28;19920;-78
2022/08/06 05:03:38;;;;;;;;;;;;;;;29.45;46.33;100764.97;5096309;28;19927;-78
2022/08/06 05:06:44;;;;;;;;;;;;;;;29.45;46.33;100770.41;5096522;28;19920;-78
2022/08/06 05:09:17;;;;;;;;;;;;;;;29.45;46.53;100767.69;5096294;28;20376;-78
2022/08/06 05:11:56;;;;;;;;;;;;;;;29.45;46.73;100766.81;5095979;28;20237;-78
2022/08/06 05:14:37;;;;;;;;;;;;;;;29.45;46.65;100772.28;5096864;28;19920;-78
2022/08/06 05:17:09;;;;;;;;;;;;;;;29.46;46.62;100773.97;5095940;28;19920;-78
2022/08/06 05:19:44;;;;;;;;;;;;;;;29.46;46.49;100779.44;5096623;28;19939;-78
2022/08/06 05:22:15;;;;;;;;;;;;;;;29.46;46.76;100782.16;5096158;28;19920;-78
2022/08/06 05:25:03;;;;;;;;;;;;;;;29.45;46.73;100788.63;5096349;28;19927;-78
2022/08/06 05:27:42;;;;;;;;;;;;;;;29.46;46.61;100782.16;5096464;28;19919;-78
2022/08/06 05:30:29;;;;;;;;;;;;;;;29.46;46.70;100782.16;5096386;28;19927;-78
2022/08/06 05:32:58;;;;;;;;;;;;;;;29.45;46.45;100781.31;5096639;28;19920;-78
2022/08/06 05:35:28;;;;;;;;;;;;;;;29.45;46.47;100784.06;5096021;28;19947;-78
2022/08/06 05:38:08;;;;;;;;;;;;;;;29.46;46.64;100790.34;5095504;28;19924;-78
2022/08/06 05:40:40;;;;;;;;;;;;;;;29.45;46.84;100789.50;5095869;28;20275;-78
2022/08/06 05:43:23;;;;;;;;;;;;;;;29.45;46.62;100789.50;5095451;28;19927;-78
2022/08/06 05:46:12;;;;;;;;;;;;;;;29.44;46.61;100787.78;5096087;28;20299;-78
2022/08/06 05:48:42;;;;;;;;;;;;;;;29.45;46.57;100797.69;5095685;28;19919;-78
2022/08/06 05:51:21;;;;;;;;;;;;;;;29.44;46.68;100793.25;5095432;28;19924;-78
2022/08/06 05:54:17;;;;;;;;;;;;;;;29.46;46.52;100793.91;5095635;28;19926;-78
2022/08/06 05:56:46;;;;;;;;;;;;;;;29.44;46.49;100789.69;5095641;28;20359;-78
2022/08/06 05:59:22;;;;;;;;;;;;;;;29.45;46.49;100794.09;5095432;28;19920;-78
2022/08/06 06:02:12;;;;;;;;;;;;;;;29.46;46.74;100795.78;5094263;28;20307;-78
2022/08/06 06:04:43;;;;;;;;;;;;;;;29.45;46.70;100805.88;5096035;28;19927;-78
2022/08/06 06:07:28;;;;;;;;;;;;;;;29.46;46.57;100803.97;5095021;28;19924;-78
2022/08/06 06:10:16;;;;;;;;;;;;;;;29.45;46.65;100807.72;5095045;28;19927;-78
2022/08/06 06:12:45;;;;;;;;;;;;;;;29.45;46.85;100808.59;5094917;28;19920;-78
2022/08/06 06:15:13;;;;;;;;;;;;;;;29.46;46.89;100806.72;5094947;28;19927;-78
2022/08/06 06:18:12;;;;;;;;;;;;;;;29.45;46.53;100814.03;5094932;28;19943;-78
2022/08/06 06:21:05;;;;;;;;;;;;;;;29.46;46.57;100812.16;5094831;28;19926;-78
2022/08/06 06:24:15;;;;;;;;;;;;;;;29.45;47.00;100811.31;5095563;28;19920;-78
2022/08/06 06:26:48;;;;;;;;;;;;;;;29.45;46.89;100811.31;5088612;28;19920;-78
2022/08/06 06:29:30;;;;;;;;;;;;;;;29.45;46.98;100819.50;5095590;28;19920;-78
2022/08/06 06:32:23;;;;;;;;;;;;;;;29.46;46.57;100814.88;5095473;28;19920;-78
2022/08/06 06:35:03;;;;;;;;;;;;;;;29.44;46.64;100817.78;5094898;28;19920;-78
2022/08/06 06:37:52;;;;;;;;;;;;;;;29.45;46.77;100815.91;5093993;28;19920;-78
2022/08/06 06:40:25;;;;;;;;;;;;;;;29.45;46.54;100822.22;5095256;28;19928;-78
2022/08/06 06:43:08;;;;;;;;;;;;;;;29.45;46.64;100816.78;5094740;28;19920;-78
2022/08/06 06:45:42;;;;;;;;;;;;;;;29.45;46.92;100819.50;5094768;28;19943;-78
2022/08/06 06:48:43;;;;;;;;;;;;;;;29.45;46.50;100816.78;5095122;28;19943;-78
2022/08/06 06:51:20;;;;;;;;;;;;;;;29.45;46.77;100811.31;5094281;28;19920;-78
2022/08/06 06:54:10;;;;;;;;;;;;;;;29.45;46.66;100816.78;5093659;28;19927;-78
2022/08/06 06:56:59;;;;;;;;;;;;;;;29.45;46.73;100814.03;5094078;28;19921;-78
2022/08/06 06:59:32;;;;;;;;;;;;;;;29.45;46.91;100815.91;5094255;28;19990;-76
2022/08/06 07:02:22;;;;;;;;;;;;;;;29.45;46.63;100816.78;5094494;28;19924;-78
2022/08/06 07:04:54;;;;;;;;;;;;;;;29.45;46.77;100815.91;5094155;28;19920;-78
2022/08/06 07:07:26;;;;;;;;;;;;;;;29.46;46.46;100817.63;5095039;28;19920;-78
2022/08/06 07:09:54;;;;;;;;;;;;;;;29.45;46.67;100807.72;5094015;28;19920;-78
2022/08/06 07:12:28;;;;;;;;;;;;;;;29.45;46.51;100818.63;5094848;28;19920;-78
2022/08/06 07:15:00;;;;;;;;;;;;;;;29.46;46.88;100818.44;5094833;28;19920;-78
2022/08/06 07:17:29;;;;;;;;;;;;;;;29.45;46.62;100818.63;5093966;28;19920;-78
2022/08/06 07:20:18;;;;;;;;;;;;;;;29.46;46.49;100818.44;5094821;28;20276;-79
2022/08/06 07:22:47;;;;;;;;;;;;;;;29.45;46.57;100808.59;5093120;28;19927;-78
2022/08/06 07:25:38;;;;;;;;;;;;;;;29.46;46.49;100810.28;5094534;28;19920;-78
2022/08/06 07:28:08;;;;;;;;;;;;;;;29.46;46.55;100807.53;5094526;28;19920;-78
2022/08/06 07:30:40;;;;;;;;;;;;;;;29.45;46.66;100811.31;5094596;28;19927;-78
2022/08/06 07:33:10;;;;;;;;;;;;;;;29.46;46.90;100810.28;5093906;28;20265;-79
2022/08/06 07:35:40;;;;;;;;;;;;;;;29.45;46.85;100807.72;5092679;28;20380;-78
2022/08/06 07:38:09;;;;;;;;;;;;;;;29.45;46.91;100810.44;5094328;28;20375;-79
2022/08/06 07:40:38;;;;;;;;;;;;;;;29.46;46.79;100810.28;5093494;28;20276;-78
2022/08/06 07:43:12;;;;;;;;;;;;;;;29.46;46.70;100813.00;5092773;28;19949;-79
2022/08/06 07:45:55;;;;;;;;;;;;;;;29.46;46.65;100818.44;5094088;28;19927;-78
2022/08/06 07:48:45;;;;;;;;;;;;;;;29.46;46.52;100810.28;5093636;28;19927;-79
2022/08/06 07:51:22;;;;;;;;;;;;;;;29.46;46.81;100803.97;5093724;28;19986;-78
2022/08/06 07:54:04;;;;;;;;;;;;;;;29.45;46.53;100808.59;5094287;28;19920;-79
2022/08/06 07:56:38;;;;;;;;;;;;;;;29.47;46.47;100800.19;5094055;28;20252;-78
2022/08/06 07:59:05;;;;;;;;;;;;;;;29.47;46.58;100811.09;5094239;28;19920;-79
2022/08/06 08:01:38;;;;;;;;;;;;;;;29.47;46.65;100809.22;5093846;28;20022;-78
2022/08/06 08:07:19;;;;;;;;;;;;;;;29.46;46.66;100813.00;5097376;28;19923;-78
2022/08/06 08:09:46;;;;;;;;;;;;;;;29.47;46.75;100814.69;5097356;28;19927;-78
2022/08/06 08:12:30;;;;;;;;;;;;;;;29.47;46.87;100813.84;5098234;28;19919;-78
2022/08/06 08:15:05;;;;;;;;;;;;;;;29.48;46.87;100812.78;5097881;28;19927;-79
2022/08/06 08:17:45;;;;;;;;;;;;;;;29.48;46.87;100812.78;5097136;28;19920;-78
2022/08/06 08:20:25;;;;;;;;;;;;;;;29.47;46.53;100814.69;5097718;28;19920;-78
2022/08/06 08:23:02;;;;;;;;;;;;;;;29.49;46.54;100822.66;5081031;28;20371;-78
2022/08/06 08:25:31;;;;;;;;;;;;;;;29.48;46.61;100810.06;5097574;28;19920;-78
2022/08/06 08:28:09;;;;;;;;;;;;;;;29.47;46.61;100811.09;5097658;28;20386;-78
2022/08/06 08:30:39;;;;;;;;;;;;;;;29.48;46.72;100810.91;5097232;28;20290;-78
2022/08/06 08:33:06;;;;;;;;;;;;;;;29.47;46.54;100809.22;5096949;28;19920;-78
2022/08/06 08:35:38;;;;;;;;;;;;;;;29.48;46.53;100802.72;5097153;28;19920;-78
2022/08/06 08:38:14;;;;;;;;;;;;;;;29.48;46.55;100808.16;5097686;28;19982;-78
2022/08/06 08:40:44;;;;;;;;;;;;;;;29.48;46.56;100824.53;5095462;28;20295;-78
2022/08/06 08:43:18;;;;;;;;;;;;;;;29.49;46.46;100817.19;5097034;28;19927;-78
2022/08/06 08:45:49;;;;;;;;;;;;;;;29.49;46.53;100822.66;5096918;28;19920;-79
2022/08/06 08:48:18;;;;;;;;;;;;;;;29.49;46.59;100825.38;5095930;28;19927;-78
2022/08/06 08:50:48;;;;;;;;;;;;;;;29.48;46.58;100824.53;5097215;28;19919;-79
2022/08/06 08:53:22;;;;;;;;;;;;;;;29.49;46.66;100823.53;5096562;28;19920;-78
2022/08/06 08:56:11;;;;;;;;;;;;;;;29.49;46.47;100818.06;5097408;28;19931;-78
2022/08/06 08:58:59;;;;;;;;;;;;;;;29.49;46.63;100828.09;5096971;28;19927;-78
2022/08/06 09:01:46;;;;;;;;;;;;;;;29.49;46.53;100825.38;5097102;28;19920;-78
2022/08/06 09:04:23;;;;;;;;;;;;;;;29.50;46.72;100818.91;5096725;28;19927;-79
2022/08/06 09:06:55;;;;;;;;;;;;;;;29.49;46.61;100823.53;5096296;28;19920;-78
2022/08/06 09:09:23;;;;;;;;;;;;;;;29.50;46.74;100825.19;5096879;28;19920;-78
2022/08/06 09:11:59;;;;;;;;;;;;;;;29.49;46.58;100815.34;5096858;28;20260;-78
2022/08/06 09:14:46;;;;;;;;;;;;;;;29.50;46.62;100814.28;5095438;28;19935;-78
2022/08/06 09:17:13;;;;;;;;;;;;;;;29.50;46.54;100819.75;5096964;28;19943;-79
2022/08/06 09:20:01;;;;;;;;;;;;;;;29.50;46.98;100822.47;5096534;28;19928;-78
2022/08/06 09:22:28;;;;;;;;;;;;;;;29.51;46.61;100815.13;5094872;28;19921;-78
2022/08/06 09:24:55;;;;;;;;;;;;;;;29.50;47.00;100814.28;5095033;28;19927;-78
2022/08/06 09:27:32;;;;;;;;;;;;;;;29.51;46.60;100815.13;5095907;28;19928;-78
2022/08/06 09:30:16;;;;;;;;;;;;;;;29.50;46.68;100811.56;5095836;28;20287;-78
2022/08/06 09:32:57;;;;;;;;;;;;;;;29.50;46.64;100806.09;5095651;28;19920;-78
2022/08/06 09:35:56;;;;;;;;;;;;;;;29.50;46.73;100805.25;5096621;28;19920;-78
2022/08/06 09:38:23;;;;;;;;;;;;;;;29.52;46.53;100811.34;5095976;28;19920;-78
2022/08/06 09:41:10;;;;;;;;;;;;;;;29.50;46.83;100808.84;5096048;28;20301;-76
2022/08/06 09:43:48;;;;;;;;;;;;;;;29.50;46.61;100808.00;5095577;28;19920;-76
2022/08/06 09:46:47;;;;;;;;;;;;;;;29.52;46.53;100814.06;5096402;28;19924;-76
2022/08/06 09:49:16;;;;;;;;;;;;;;;29.52;46.53;100814.06;5094697;28;19927;-76
2022/08/06 09:52:11;;;;;;;;;;;;;;;29.52;46.50;100812.19;5095663;28;19927;-76
2022/08/06 09:54:39;;;;;;;;;;;;;;;29.52;46.56;100809.47;5095924;28;20363;-76
2022/08/06 09:57:08;;;;;;;;;;;;;;;29.52;46.54;100804.00;5095068;28;20279;-76
2022/08/06 09:59:46;;;;;;;;;;;;;;;29.52;46.84;100806.72;5096074;28;19927;-76
2022/08/06 10:02:20;;;;;;;;;;;;;;;29.53;46.69;100807.56;5095840;28;19920;-76
2022/08/06 10:05:08;;;;;;;;;;;;;;;29.52;46.91;100804.00;5095810;28;19919;-76
2022/08/06 10:07:47;;;;;;;;;;;;;;;29.53;46.86;100811.16;5096038;28;19935;-76
2022/08/06 10:10:37;;;;;;;;;;;;;;;29.52;46.54;100801.28;5095722;28;19927;-76
2022/08/06 10:13:11;;;;;;;;;;;;;;;29.52;46.91;100801.28;5094984;28;19920;-76
2022/08/06 10:15:43;;;;;;;;;;;;;;;29.53;46.51;100805.72;5095867;28;19931;-76
2022/08/06 10:18:43;;;;;;;;;;;;;;;29.53;46.43;100802.09;5095719;28;20314;-76
2022/08/06 10:21:36;;;;;;;;;;;;;;;29.53;46.58;100785.75;5094552;28;19927;-76
2022/08/06 10:24:15;;;;;;;;;;;;;;;29.53;46.47;100796.66;5093983;28;19926;-76
2022/08/06 10:27:00;;;;;;;;;;;;;;;29.53;46.82;100802.97;5094153;28;20368;-76
2022/08/06 10:29:29;;;;;;;;;;;;;;;29.53;46.58;100802.97;5095510;28;19919;-76
2022/08/06 10:32:00;;;;;;;;;;;;;;;29.53;46.59;100802.97;5095407;28;19927;-76
2022/08/06 10:34:30;;;;;;;;;;;;;;;29.54;46.46;100793.75;5093325;28;19920;-75
2022/08/06 10:37:02;;;;;;;;;;;;;;;29.54;46.63;100793.75;5094847;28;19943;-76
2022/08/06 10:39:52;;;;;;;;;;;;;;;29.54;46.73;100798.38;5095088;28;19920;-76
2022/08/06 10:42:38;;;;;;;;;;;;;;;29.55;46.56;100792.69;5094425;28;19927;-76
2022/08/06 10:45:11;;;;;;;;;;;;;;;29.54;46.51;100790.19;5093142;28;19927;-76
2022/08/06 10:47:44;;;;;;;;;;;;;;;29.54;46.52;100791.03;5095167;28;19920;-76
2022/08/06 10:50:31;;;;;;;;;;;;;;;29.55;46.64;100778.22;5094964;28;19924;-76
2022/08/06 10:53:11;;;;;;;;;;;;;;;29.54;46.58;100785.56;5094980;28;20293;-76
2022/08/06 10:56:00;;;;;;;;;;;;;;;29.54;46.59;100787.44;5094493;28;19920;-76
2022/08/06 10:58:29;;;;;;;;;;;;;;;29.56;46.61;100779.91;5094217;28;19920;-76
2022/08/06 11:00:58;;;;;;;;;;;;;;;29.55;46.62;100773.59;5092815;28;19920;-76
2022/08/06 11:03:41;;;;;;;;;;;;;;;29.55;46.88;100779.06;5095052;28;19920;-76
2022/08/06 11:06:14;;;;;;;;;;;;;;;29.56;46.52;100779.91;5094430;28;20371;-76
2022/08/06 11:08:49;;;;;;;;;;;;;;;29.56;46.58;100782.63;5092799;28;19943;-76
2022/08/06 11:11:43;;;;;;;;;;;;;;;29.56;46.82;100778.03;5094125;28;19920;-76
2022/08/06 11:14:32;;;;;;;;;;;;;;;29.56;46.66;100760.81;5094723;28;19943;-76
2022/08/06 11:17:04;;;;;;;;;;;;;;;29.55;46.72;100759.97;5094353;28;19927;-76
2022/08/06 11:19:40;;;;;;;;;;;;;;;29.57;46.60;100762.50;5094578;28;19920;-76
2022/08/06 11:22:36;;;;;;;;;;;;;;;29.56;46.88;100761.66;5094891;28;19924;-76
2022/08/06 11:25:08;;;;;;;;;;;;;;;29.57;46.79;100765.22;5094221;28;19927;-76
2022/08/06 11:27:56;;;;;;;;;;;;;;;29.58;46.83;100763.38;5094807;28;19927;-76
2022/08/06 11:30:45;;;;;;;;;;;;;;;29.57;46.71;100754.31;5094260;28;20368;-76
2022/08/06 11:33:20;;;;;;;;;;;;;;;29.58;46.68;100755.19;5094760;28;19920;-76
2022/08/06 11:35:50;;;;;;;;;;;;;;;29.58;46.81;100752.47;5094457;28;20267;-76
2022/08/06 11:38:39;;;;;;;;;;;;;;;29.58;46.56;100749.75;5097029;28;19927;-76
2022/08/06 11:41:18;;;;;;;;;;;;;;;29.58;46.70;100744.28;5098453;28;19920;-76
2022/08/06 11:44:05;;;;;;;;;;;;;;;29.57;46.70;100732.50;5098474;28;20402;-76
2022/08/06 11:46:37;;;;;;;;;;;;;;;29.58;46.56;100738.81;5096658;28;19920;-76
2022/08/06 11:49:15;;;;;;;;;;;;;;;29.57;46.61;100737.97;5098398;28;20367;-76
2022/08/06 11:51:47;;;;;;;;;;;;;;;29.58;46.52;100736.94;5098579;28;19920;-76
2022/08/06 11:54:56;;;;;;;;;;;;;;;29.58;46.62;100734.22;5096817;28;19943;-76
2022/08/06 11:57:24;;;;;;;;;;;;;;;29.58;46.90;100731.47;5096694;28;19920;-76
2022/08/06 12:00:13;;;;;;;;;;;;;;;29.59;46.67;100729.59;5098404;28;19927;-76
2022/08/06 12:02:50;;;;;;;;;;;;;;;29.59;46.89;100729.59;5096497;28;19932;-76
2022/08/06 12:05:21;;;;;;;;;;;;;;;29.59;46.94;100724.13;5097234;28;19920;-76
2022/08/06 12:08:11;;;;;;;;;;;;;;;29.59;46.65;100721.41;5097271;28;19919;-76
2022/08/06 12:11:18;;;;;;;;;;;;;;;29.60;46.83;100720.34;5096449;28;20371;-76
2022/08/06 12:13:49;;;;;;;;;;;;;;;29.60;46.73;100714.91;5098149;28;19927;-76
2022/08/06 12:17:08;;;;;;;;;;;;;;;29.59;46.65;100707.78;5095748;28;19927;-76
2022/08/06 12:19:41;;;;;;;;;;;;;;;29.60;46.61;100704.00;5098095;28;19927;-74
2022/08/06 12:22:30;;;;;;;;;;;;;;;29.59;46.74;100696.84;5097224;28;19927;-74
2022/08/06 12:25:06;;;;;;;;;;;;;;;29.60;46.62;100698.53;5097114;28;20272;-74
2022/08/06 12:27:39;;;;;;;;;;;;;;;29.60;46.79;100695.81;5097623;28;19986;-74
2022/08/06 12:30:18;;;;;;;;;;;;;;;29.60;46.82;100693.06;5097299;28;19920;-74
2022/08/06 12:33:04;;;;;;;;;;;;;;;29.60;46.59;100691.19;5097704;28;19930;-74
2022/08/06 12:35:53;;;;;;;;;;;;;;;29.60;47.02;100695.81;5095923;28;19920;-76
2022/08/06 12:38:24;;;;;;;;;;;;;;;29.61;46.85;100700.22;5096792;28;19927;-74
2022/08/06 12:40:54;;;;;;;;;;;;;;;29.61;46.73;100694.75;5096387;28;19920;-74
2022/08/06 12:43:23;;;;;;;;;;;;;;;29.60;46.70;100693.91;5097897;28;19983;-74
2022/08/06 12:46:11;;;;;;;;;;;;;;;29.61;46.64;100684.69;5080492;28;19920;-74
2022/08/06 12:48:48;;;;;;;;;;;;;;;29.61;46.81;100689.28;5094672;28;19920;-74
2022/08/06 12:51:15;;;;;;;;;;;;;;;29.61;46.77;100679.22;5096449;28;19927;-74
2022/08/06 12:53:48;;;;;;;;;;;;;;;29.60;46.95;100688.47;5095353;28;19923;-74
2022/08/06 12:56:15;;;;;;;;;;;;;;;29.61;46.54;100701.03;5096769;28;20394;-74
2022/08/06 12:58:58;;;;;;;;;;;;;;;29.62;46.67;100699.19;5095138;28;20248;-74
2022/08/06 13:01:26;;;;;;;;;;;;;;;29.61;46.63;100695.59;5097087;28;19919;-74
2022/08/06 13:04:14;;;;;;;;;;;;;;;29.62;46.72;100707.38;5096929;28;19987;-74
2022/08/06 13:06:43;;;;;;;;;;;;;;;29.62;46.85;100702.75;5096224;28;19920;-74
2022/08/06 13:09:15;;;;;;;;;;;;;;;29.62;46.92;100697.28;5095220;28;19927;-74
2022/08/06 13:11:44;;;;;;;;;;;;;;;29.62;46.61;100696.47;5096168;28;19931;-74
2022/08/06 13:14:17;;;;;;;;;;;;;;;29.62;46.80;100701.91;5096713;28;19920;-74
2022/08/06 13:16:47;;;;;;;;;;;;;;;29.63;46.73;100698.13;5095361;28;19927;-74
2022/08/06 13:19:23;;;;;;;;;;;;;;;29.63;46.87;100700.84;5096615;28;19920;-74
2022/08/06 13:22:07;;;;;;;;;;;;;;;29.63;46.58;100703.59;5094830;28;19943;-75
2022/08/06 13:24:35;;;;;;;;;;;;;;;29.62;46.63;100700.03;5095925;28;19920;-74
2022/08/06 13:27:31;;;;;;;;;;;;;;;29.63;46.64;100693.50;5095542;28;19920;-74
2022/08/06 13:30:03;;;;;;;;;;;;;;;29.63;46.53;100695.41;5096453;28;19920;-74
2022/08/06 13:32:50;;;;;;;;;;;;;;;29.63;46.73;100685.31;5094482;28;19920;-74